Welcome to Des Moines Iowa Weather. I am an independent private personal weather station on the Northwest Side of Des Moines, Iowa. Just East of Windsor Heights and just West of Glendale . This site is also mobile friendly.

There are no active watches, warnings or advisories


Visit our other weather sites:

Historical Data

Weather Station Setup



Weather Underground History page Text

Daily Summary for August 15, 2017 Units:  English    Metric   Both
« Previous Day
Next Day »
Daily Weekly Monthly Yearly Custom
  High: Low: Average:
Temperature: 75.0 °F 64.5 °F 69.8 °F
Dew Point: 71.0 °F 62.0 °F 66.6 °F
Humidity: 95 % 79 % 89 %
Wind Speed: 4.0 mph 0.0 mph 0.5 mph
Wind Gust: 11.0 mph - -
Wind:- - ENE
Pressure: 29.90 in 29.78 in -
Precipitation: 0.08 in    
Historical Graphs
 
 
Tabular Data for August 15, 2017
Time Temperature Dew Point Pressure Wind Wind Speed Wind Gust Humidity Rainfall Rate (Hourly)
00:07 70.3 °F 66.0 °F 29.80 in Calm   3.0 mph 85 % 0.00 in
00:22 69.9 °F 65.0 °F 29.80 in Calm   4.0 mph 85 % 0.00 in
00:37 69.6 °F 65.0 °F 29.80 in Calm   2.0 mph 85 % 0.00 in
00:52 69.2 °F 65.0 °F 29.80 in Calm   2.0 mph 86 % 0.00 in
01:07 69.0 °F 65.0 °F 29.80 in Calm   3.0 mph 86 % 0.00 in
01:22 68.6 °F 65.0 °F 29.79 in Calm   3.0 mph 87 % 0.00 in
01:37 68.4 °F 64.0 °F 29.79 in Calm   3.0 mph 87 % 0.00 in
01:52 68.2 °F 65.0 °F 29.79 in NNE 2.0 mph 4.0 mph 88 % 0.00 in
02:07 68.0 °F 64.0 °F 29.80 in North 1.0 mph 3.0 mph 88 % 0.00 in
02:22 67.8 °F 65.0 °F 29.80 in Calm   4.0 mph 89 % 0.00 in
02:37 67.6 °F 64.0 °F 29.81 in Calm   3.0 mph 89 % 0.00 in
02:52 67.4 °F 64.0 °F 29.81 in Calm   2.0 mph 89 % 0.00 in
03:07 67.2 °F 64.0 °F 29.81 in Calm     89 % 0.00 in
03:22 67.0 °F 64.0 °F 29.81 in Calm     90 % 0.00 in
03:37 66.7 °F 64.0 °F 29.82 in Calm     90 % 0.00 in
03:52 66.5 °F 64.0 °F 29.81 in Calm     90 % 0.00 in
04:07 66.2 °F 63.0 °F 29.81 in Calm     90 % 0.00 in
04:22 65.9 °F 63.0 °F 29.81 in Calm     90 % 0.00 in
04:37 65.6 °F 63.0 °F 29.81 in Calm     90 % 0.00 in
04:52 65.4 °F 63.0 °F 29.80 in Calm     91 % 0.00 in
05:07 65.3 °F 63.0 °F 29.81 in Calm   1.0 mph 91 % 0.00 in
05:22 65.2 °F 63.0 °F 29.81 in Calm     92 % 0.00 in
05:38 65.0 °F 63.0 °F 29.82 in Calm     92 % 0.00 in
05:53 64.8 °F 63.0 °F 29.82 in Calm     92 % 0.00 in
06:08 64.7 °F 62.0 °F 29.83 in Calm     92 % 0.00 in
06:23 64.5 °F 63.0 °F 29.83 in Calm     93 % 0.00 in
06:38 64.5 °F 63.0 °F 29.84 in Calm     93 % 0.00 in
06:53 64.6 °F 63.0 °F 29.84 in Calm     93 % 0.00 in
07:08 64.9 °F 63.0 °F 29.84 in Calm   2.0 mph 94 % 0.00 in
07:23 65.2 °F 64.0 °F 29.84 in Calm   3.0 mph 94 % 0.00 in
07:38 65.5 °F 64.0 °F 29.84 in Calm   1.0 mph 94 % 0.00 in
07:53 65.8 °F 64.0 °F 29.84 in Calm   2.0 mph 94 % 0.00 in
08:08 66.3 °F 65.0 °F 29.84 in ENE 2.0 mph 3.0 mph 94 % 0.00 in
08:23 66.9 °F 65.0 °F 29.83 in Calm   3.0 mph 93 % 0.00 in
08:38 67.7 °F 65.0 °F 29.84 in NE 1.0 mph 4.0 mph 92 % 0.00 in
08:53 68.5 °F 66.0 °F 29.84 in Calm   4.0 mph 90 % 0.00 in
09:08 69.2 °F 66.0 °F 29.84 in ENE 1.0 mph 3.0 mph 89 % 0.00 in
09:23 69.9 °F 66.0 °F 29.84 in Calm   3.0 mph 88 % 0.00 in
09:38 70.6 °F 67.0 °F 29.85 in Calm   2.0 mph 87 % 0.00 in
09:54 71.5 °F 67.0 °F 29.85 in ENE 1.0 mph 3.0 mph 85 % 0.00 in
10:08 72.0 °F 67.0 °F 29.84 in East 1.0 mph 4.0 mph 84 % 0.00 in
10:24 72.6 °F 67.0 °F 29.86 in Calm   6.0 mph 83 % 0.00 in
10:39 73.5 °F 68.0 °F 29.87 in Calm   3.0 mph 83 % 0.00 in
10:54 74.3 °F 68.0 °F 29.87 in ENE 1.0 mph 4.0 mph 80 % 0.00 in
11:09 74.8 °F 68.0 °F 29.88 in Calm   4.0 mph 79 % 0.00 in
11:24 74.7 °F 68.0 °F 29.88 in ENE 1.0 mph 4.0 mph 80 % 0.00 in
11:39 74.7 °F 68.0 °F 29.88 in ENE 1.0 mph 3.0 mph 80 % 0.00 in
11:54 74.4 °F 68.0 °F 29.89 in North 1.0 mph 5.0 mph 80 % 0.00 in
12:09 73.8 °F 68.0 °F 29.88 in Calm   8.0 mph 82 % 0.00 in
12:24 73.2 °F 68.0 °F 29.88 in East 1.0 mph 5.0 mph 83 % 0.00 in
12:39 72.5 °F 67.0 °F 29.88 in NW 2.0 mph 4.0 mph 84 % 0.00 in
12:54 72.0 °F 67.0 °F 29.89 in Calm   3.0 mph 85 % 0.00 in
13:09 71.6 °F 67.0 °F 29.90 in Calm   3.0 mph 86 % 0.00 in
13:24 71.3 °F 67.0 °F 29.89 in Calm   3.0 mph 86 % 0.00 in
13:39 71.0 °F 67.0 °F 29.90 in Calm   5.0 mph 87 % 0.00 in
13:54 70.6 °F 67.0 °F 29.89 in Calm   2.0 mph 88 % 0.00 in
14:09 70.4 °F 67.0 °F 29.87 in North 1.0 mph 2.0 mph 89 % 0.01 in
14:25 69.8 °F 67.0 °F 29.84 in ESE 2.0 mph 7.0 mph 91 % 0.01 in
14:39 69.4 °F 67.0 °F 29.80 in SSE 4.0 mph 11.0 mph 92 % 0.05 in
14:54 69.2 °F 67.0 °F 29.79 in SSE 3.0 mph 8.0 mph 93 % 0.07 in
15:09 69.5 °F 68.0 °F 29.78 in South 3.0 mph 8.0 mph 94 % 0.07 in
15:24 70.1 °F 68.0 °F 29.80 in Calm   4.0 mph 94 % 0.07 in
15:39 70.5 °F 69.0 °F 29.82 in Calm   1.0 mph 94 % 0.03 in
15:54 71.0 °F 70.0 °F 29.82 in Calm     95 % 0.01 in
16:09 71.8 °F 70.0 °F 29.81 in Calm   3.0 mph 95 % 0.00 in
16:24 72.0 °F 71.0 °F 29.82 in Calm   4.0 mph 95 % 0.00 in
16:39 72.2 °F 71.0 °F 29.83 in Calm   3.0 mph 95 % 0.00 in
16:54 72.2 °F 70.0 °F 29.83 in Calm   3.0 mph 94 % 0.00 in
17:09 72.4 °F 70.0 °F 29.82 in ENE 2.0 mph 3.0 mph 93 % 0.00 in
17:24 74.6 °F 71.0 °F 29.82 in Calm   5.0 mph 89 % 0.00 in
17:39 74.9 °F 71.0 °F 29.82 in NNE 1.0 mph 4.0 mph 88 % 0.00 in
17:54 75.0 °F 71.0 °F 29.83 in NNE 1.0 mph 5.0 mph 86 % 0.00 in
18:09 74.9 °F 71.0 °F 29.83 in NNE 2.0 mph 4.0 mph 86 % 0.00 in
18:24 74.6 °F 70.0 °F 29.82 in NE 4.0 mph 4.0 mph 85 % 0.00 in
18:39 74.2 °F 70.0 °F 29.81 in NNE 1.0 mph 4.0 mph 86 % 0.00 in
18:54 73.6 °F 69.0 °F 29.80 in Calm   4.0 mph 86 % 0.00 in
19:09 73.1 °F 69.0 °F 29.81 in Calm   4.0 mph 87 % 0.00 in
19:24 72.6 °F 69.0 °F 29.82 in Calm   4.0 mph 88 % 0.00 in
19:39 72.1 °F 68.0 °F 29.83 in Calm   5.0 mph 88 % 0.00 in
19:54 71.8 °F 69.0 °F 29.83 in Calm   1.0 mph 89 % 0.00 in
20:09 71.4 °F 68.0 °F 29.84 in Calm   4.0 mph 90 % 0.00 in
20:24 70.8 °F 68.0 °F 29.84 in Calm   3.0 mph 90 % 0.00 in
20:39 70.5 °F 68.0 °F 29.84 in NE 3.0 mph 6.0 mph 91 % 0.00 in
20:54 70.3 °F 68.0 °F 29.84 in Calm   4.0 mph 92 % 0.00 in
21:09 70.3 °F 68.0 °F 29.85 in Calm   3.0 mph 92 % 0.00 in
21:25 70.2 °F 68.0 °F 29.85 in Calm   2.0 mph 93 % 0.00 in
21:39 70.1 °F 68.0 °F 29.85 in Calm   4.0 mph 93 % 0.00 in
21:54 70.0 °F 68.0 °F 29.86 in NNE 1.0 mph 4.0 mph 93 % 0.00 in
22:09 69.9 °F 68.0 °F 29.86 in Calm   2.0 mph 93 % 0.00 in
22:27 69.7 °F 68.0 °F 29.87 in NE 1.0 mph 2.0 mph 93 % 0.00 in
22:40 69.6 °F 68.0 °F 29.87 in Calm   1.0 mph 94 % 0.00 in
22:55 69.5 °F 68.0 °F 29.87 in Calm   1.0 mph 94 % 0.00 in
23:09 69.3 °F 68.0 °F 29.87 in Calm   2.0 mph 94 % 0.00 in
23:24 69.1 °F 67.0 °F 29.86 in Calm   3.0 mph 94 % 0.00 in
23:39 68.9 °F 67.0 °F 29.86 in Calm   2.0 mph 94 % 0.00 in
23:54 68.8 °F 67.0 °F 29.86 in ENE 4.0 mph 4.0 mph 94 % 0.00 in
Des Moines Weather and Climate
Compliments of Weather Underground - 3 mb

Script developed by  Jim McMurry - jmcmurry@mwt.net Adapted for the template by  Wim van der Kuil - Leuven-Template.eu

You find our weather info also at:

Weather Underground

Equipment we use:

Weather-station
Davis VP2 Plus

Weather-program
Davis Weatherlink.Com

Weather-server
iMac (Retina 4K, 21.5-inch, Late 2015)

Provider
Hostmonster.com

Davis VP2 Plus

Davis Weatherlink.Com

iMac (Retina 4K, 21.5-inch, Late 2015)

Hostmonster.com